Nikolaevsk, Alaska
Current Conditions -  °F | °C
As of 1:53 AM on Friday 19 Dec 2014 (Local Time) from PAHO Reporting Station
Overcast Overcast  
Wind Chill: 28°   Ceiling: 9000
Heat Index: 35°   Visibility: 10mi
Dew Point: 22°   Wind: 9mph
Humidity: 59%   Direction: 70°ENE
Pressure: 29.12"   Gusts: NA
Location:  59.8183°N, 151.638°W
Report Text: PAHO 191053Z AUTO 07008KT 10SM SCT075 OVC090 02/M06 A2912 RMK AO2 SLP862 T00171056 TSNO
Loading
Personal Weather Stations






























Interactive Weather Map New forecast layout! Learn more

10-Day Weather Forecast

Advertisements
Track Severe Weather on mobile